Eagle County Regional Airport
KEGE : now visible

Airfield :











YOU CAN JOIN US ON...

 
LOGIN :

Register | Disclaimer

   EN    FR    IT 

 









Legend :    VFR   Marginal VFR   IFR   Intensive IFR   Very Intensive IFR
Visi :
Ceiling :
>= 8 km
>= 3000ft
5 to 8 km
1000 to 3000 ft
1500m to 5 km
500 to 1000 ft
800 to 1500m
200 to 500 ft
< 800m
< 200 ft
Symbols :   Thunderstorms  Fog  Heavy snow  Heavy precipitations  Wind > 20 kt






- Airport Elevation : 6548 ft
- IATA code : EGE


KEGE - Eagle County Regional

CURRENT METAR :
  • 181256Z AUTO 09004KT 10SM FEW120 02/M02 A3010 RMK AO2 SLP101 T00221017 FZRANO

EXPIRED METARs :
  • 181156Z AUTO 09005KT 10SM FEW110 02/M02 A3008 RMK AO2 SLP096 T00171022 10094 20017 53003 FZRANO
  • 181056Z AUTO 00000KT 10SM FEW110 03/M02 A3007 RMK AO2 SLP093 T00281017
  • 180956Z AUTO 16003KT 10SM CLR 03/M02 A3006 RMK AO2 SLP091 T00331017
  • 180856Z AUTO 19005KT 10SM CLR 06/M01 A3007 RMK AO2 SLP093 T00611006 58001

TAF KEGE
Valid from the 18 at 12:00 until the 19 at 12:00 UTC


181140Z 1812/1912 VRB04KT P6SM SCT070 BKN110
FM181500 25007KT P6SM SCT060 BKN090
FM181800 26016G26KT P6SM SCT060 BKN130
FM190200 17008KT P6SM SCT090 BKN140
FM190600 11008KT P6SM SCT090 BKN110
KZDV FIR / North America



MET'MAP, your aeronautical weather chart ! - Copyright ORBIFLY December 2007 - Disclaimer

ORBIFLY MET'MAP TEAM :

Programming & Development : Alexandra Zaïnal
Original concept : Baudouin d'Aumeries
Technical & hardware support : Manuel Goepfert
Assistance : Marc-Olivier Méhu




SOURCES & CREDITS :

   NOAA       Earth
Advisory